Time;durP1;ratioP1;P1;durP2;ratioP2;P2;SDS_P1;SDS_P2;PMS_P1;PMS_P2;Temp;Humidity;BMP_temperature;BMP_pressure;BME280_temperature;BME280_humidity;BME280_pressure;Samples;Min_cycle;Max_cycle;Signal;HPM_P1;HPM_P2
2024/04/22 00:01:39;;;;;;;3.50;2.50;;;5.90;77.90;;;;;;5418890;26;20216;-75
2024/04/22 00:04:08;;;;;;;3.30;2.20;;;5.90;78.20;;;;;;5418517;26;20772;-75
2024/04/22 00:06:37;;;;;;;3.30;2.40;;;5.90;78.30;;;;;;5418878;26;20450;-75
2024/04/22 00:09:05;;;;;;;7.10;3.90;;;5.90;78.20;;;;;;5419516;26;20228;-75
2024/04/22 00:11:31;;;;;;;5.38;2.72;;;5.80;78.00;;;;;;5419062;26;20255;-75
2024/04/22 00:14:00;;;;;;;4.43;2.70;;;5.80;78.10;;;;;;5419093;26;20220;-75
2024/04/22 00:16:26;;;;;;;4.22;2.97;;;5.90;77.90;;;;;;5418110;26;20233;-75
2024/04/22 00:18:55;;;;;;;4.20;2.90;;;5.90;77.50;;;;;;5419344;26;20715;-75
2024/04/22 00:21:21;;;;;;;4.32;2.92;;;5.80;77.60;;;;;;5418856;26;20450;-75
2024/04/22 00:23:52;;;;;;;5.47;3.55;;;5.80;77.90;;;;;;5419371;26;20263;-75
2024/04/22 00:26:18;;;;;;;4.60;3.17;;;5.80;78.20;;;;;;5418617;26;20279;-75
2024/04/22 00:28:46;;;;;;;3.77;2.37;;;5.80;78.10;;;;;;5418622;26;20272;-75
2024/04/22 00:31:12;;;;;;;4.40;2.92;;;5.70;79.30;;;;;;5419087;26;20453;-74
2024/04/22 00:33:41;;;;;;;4.47;3.10;;;5.70;79.80;;;;;;5419005;26;20286;-74
2024/04/22 00:36:07;;;;;;;4.45;2.85;;;5.70;80.30;;;;;;5418489;26;20519;-74
2024/04/22 00:38:36;;;;;;;3.38;2.63;;;5.70;80.00;;;;;;5418807;26;20220;-74
2024/04/22 00:41:04;;;;;;;4.80;3.10;;;5.70;80.50;;;;;;5418796;26;20263;-75
2024/04/22 00:43:33;;;;;;;4.65;3.45;;;5.70;80.60;;;;;;5418528;26;20749;-74
2024/04/22 00:45:59;;;;;;;4.50;3.10;;;5.70;80.90;;;;;;5418248;26;20722;-75
2024/04/22 00:48:29;;;;;;;6.35;3.10;;;5.80;79.80;;;;;;5418128;26;20232;-74
2024/04/22 00:50:56;;;;;;;4.18;2.78;;;5.80;79.10;;;;;;5418453;26;20609;-75
2024/04/22 00:53:25;;;;;;;4.25;3.22;;;5.80;78.10;;;;;;5417788;26;20220;-75
2024/04/22 00:55:55;;;;;;;4.95;3.55;;;5.70;79.20;;;;;;5418730;26;20532;-75
2024/04/22 00:58:28;;;;;;;5.75;3.25;;;5.70;79.70;;;;;;5418384;26;20274;-75
2024/04/22 01:00:56;;;;;;;5.50;3.40;;;5.70;79.70;;;;;;5418255;26;20228;-74
2024/04/22 01:03:25;;;;;;;4.20;2.88;;;5.70;80.20;;;;;;5418172;26;20250;-75
2024/04/22 01:05:52;;;;;;;4.55;3.05;;;5.70;80.20;;;;;;5418420;26;20224;-75
2024/04/22 01:08:21;;;;;;;4.78;3.33;;;5.70;80.50;;;;;;5418016;26;20775;-75
2024/04/22 01:10:47;;;;;;;4.50;3.33;;;5.80;79.40;;;;;;5417704;26;20228;-75
2024/04/22 01:13:16;;;;;;;5.13;3.17;;;5.70;80.30;;;;;;5418053;26;20221;-76
2024/04/22 01:15:45;;;;;;;4.93;3.60;;;5.80;81.20;;;;;;5417948;26;20216;-75
2024/04/22 01:18:19;;;;;;;4.85;2.95;;;5.80;80.90;;;;;;5418172;26;20263;-74
2024/04/22 01:20:45;;;;;;;5.20;3.17;;;5.70;80.60;;;;;;5417707;26;20594;-75
2024/04/22 01:23:17;;;;;;;4.65;2.90;;;5.70;81.20;;;;;;5417998;26;20216;-75
2024/04/22 01:25:50;;;;;;;5.07;3.35;;;5.70;81.80;;;;;;5417988;26;20260;-75
2024/04/22 01:28:19;;;;;;;5.63;3.75;;;5.70;80.30;;;;;;5417467;26;20212;-75
2024/04/22 01:30:45;;;;;;;4.80;3.65;;;5.80;80.60;;;;;;5417698;26;20255;-75
2024/04/22 01:33:13;;;;;;;4.73;4.13;;;5.70;80.50;;;;;;5417632;26;20228;-74
2024/04/22 01:35:39;;;;;;;4.95;3.45;;;5.70;81.30;;;;;;5417635;26;20500;-75
2024/04/22 01:38:09;;;;;;;5.20;3.47;;;5.70;81.70;;;;;;5417683;26;20221;-75
2024/04/22 01:40:38;;;;;;;6.43;4.15;;;5.70;81.50;;;;;;5417964;26;20450;-75
2024/04/22 01:43:06;;;;;;;5.50;3.70;;;5.70;81.50;;;;;;5417705;26;20666;-75
2024/04/22 01:45:32;;;;;;;4.85;3.40;;;5.70;82.70;;;;;;5417323;26;20232;-75
2024/04/22 01:48:01;;;;;;;4.50;3.57;;;5.70;83.10;;;;;;5417447;26;20258;-75
2024/04/22 01:50:27;;;;;;;4.60;3.30;;;5.80;81.90;;;;;;5417486;26;20841;-75
2024/04/22 01:52:56;;;;;;;5.50;3.50;;;5.80;81.30;;;;;;5417394;26;20271;-74
2024/04/22 01:55:23;;;;;;;4.65;3.30;;;5.80;80.70;;;;;;5417606;26;20454;-76
2024/04/22 01:57:54;;;;;;;4.88;3.63;;;5.80;81.30;;;;;;5417216;26;20264;-76
2024/04/22 02:00:20;;;;;;;4.63;3.55;;;5.80;81.20;;;;;;5417449;26;20268;-75
2024/04/22 02:02:49;;;;;;;5.35;3.88;;;5.80;80.60;;;;;;5417017;26;20367;-74
2024/04/22 02:05:15;;;;;;;7.03;3.72;;;5.80;80.50;;;;;;5415453;26;20263;-75
2024/04/22 02:07:43;;;;;;;4.60;3.55;;;5.80;81.40;;;;;;5417509;26;20721;-75
2024/04/22 02:10:11;;;;;;;6.55;4.18;;;5.90;81.30;;;;;;5417416;26;20266;-75
2024/04/22 02:12:40;;;;;;;4.40;3.92;;;5.90;81.20;;;;;;5417442;26;20232;-75
2024/04/22 02:15:09;;;;;;;5.40;4.40;;;5.90;81.20;;;;;;5416932;26;20593;-75
2024/04/22 02:17:37;;;;;;;5.57;4.22;;;5.90;81.70;;;;;;5417477;26;20306;-76
2024/04/22 02:20:04;;;;;;;4.57;3.88;;;5.90;81.50;;;;;;5417626;26;20213;-74
2024/04/22 02:22:33;;;;;;;4.40;3.40;;;5.90;81.50;;;;;;5417395;26;20765;-76
2024/04/22 02:24:59;;;;;;;5.75;4.00;;;5.80;81.10;;;;;;5417099;26;20687;-74
2024/04/22 02:27:32;;;;;;;4.13;3.67;;;5.90;81.20;;;;;;5416682;26;20224;-75
2024/04/22 02:29:58;;;;;;;4.55;3.63;;;5.90;80.50;;;;;;5417573;26;20564;-75
2024/04/22 02:32:30;;;;;;;4.70;3.13;;;5.80;80.00;;;;;;5416744;26;20406;-76
2024/04/22 02:34:56;;;;;;;3.67;2.83;;;5.80;79.60;;;;;;5416487;26;20466;-75
2024/04/22 02:37:25;;;;;;;3.88;3.38;;;5.80;79.80;;;;;;5416757;26;20258;-75
2024/04/22 02:39:51;;;;;;;5.03;3.10;;;5.80;79.50;;;;;;5416175;26;20283;-75
2024/04/22 02:42:19;;;;;;;3.57;2.93;;;5.80;79.70;;;;;;5416516;26;20232;-75
2024/04/22 02:44:45;;;;;;;4.40;3.78;;;5.70;79.70;;;;;;5416674;26;20450;-75
2024/04/22 02:47:14;;;;;;;3.65;3.05;;;5.60;79.60;;;;;;5417190;26;20229;-74
2024/04/22 02:49:42;;;;;;;4.70;4.15;;;5.60;79.20;;;;;;5416406;26;20233;-75
2024/04/22 02:52:11;;;;;;;4.03;3.63;;;5.60;79.00;;;;;;5416595;26;20761;-75
2024/04/22 02:54:37;;;;;;;4.90;3.65;;;5.60;79.00;;;;;;5416579;26;20220;-75
2024/04/22 02:57:06;;;;;;;3.93;3.10;;;5.60;79.30;;;;;;5416397;26;20270;-75
2024/04/22 02:59:32;;;;;;;4.43;3.70;;;5.50;79.70;;;;;;5416709;26;20457;-75
2024/04/22 03:02:00;;;;;;;5.87;4.10;;;5.50;80.00;;;;;;5416419;26;20232;-75
2024/04/22 03:04:26;;;;;;;4.65;3.50;;;5.50;80.50;;;;;;5416525;26;20450;-75
2024/04/22 03:06:57;;;;;;;5.40;3.60;;;5.50;80.30;;;;;;5416772;26;20716;-74
2024/04/22 03:09:25;;;;;;;4.45;3.70;;;5.40;80.40;;;;;;5416446;26;20573;-74
2024/04/22 03:11:53;;;;;;;4.57;3.70;;;5.40;80.90;;;;;;5416416;26;20232;-74
2024/04/22 03:14:19;;;;;;;4.65;3.17;;;5.50;80.60;;;;;;5415935;26;20788;-75
2024/04/22 03:16:48;;;;;;;4.45;3.90;;;5.40;80.40;;;;;;5418729;26;20208;-75
2024/04/22 03:19:16;;;;;;;5.15;3.88;;;5.50;80.30;;;;;;5419748;26;20690;-75
2024/04/22 03:21:44;;;;;;;5.10;3.65;;;5.50;79.90;;;;;;5419661;26;20674;-75
2024/04/22 03:24:13;;;;;;;4.43;3.70;;;5.50;80.00;;;;;;5419657;26;20583;-75
2024/04/22 03:26:42;;;;;;;4.90;3.45;;;5.50;79.80;;;;;;5419880;26;20279;-75
2024/04/22 03:29:08;;;;;;;4.47;3.38;;;5.40;79.70;;;;;;5419413;26;20274;-75
2024/04/22 03:31:37;;;;;;;4.50;3.58;;;5.40;79.90;;;;;;5419803;26;20220;-75
2024/04/22 03:34:04;;;;;;;4.35;3.47;;;5.50;79.80;;;;;;5419284;26;20228;-76
2024/04/22 03:36:33;;;;;;;5.43;3.38;;;5.40;79.90;;;;;;5419790;26;20216;-75
2024/04/22 03:39:02;;;;;;;3.42;2.65;;;5.40;80.00;;;;;;5419097;26;20552;-74
2024/04/22 03:41:33;;;;;;;3.78;2.78;;;5.40;80.10;;;;;;5419471;26;20536;-74
2024/04/22 03:44:02;;;;;;;3.90;3.00;;;5.40;80.30;;;;;;5418885;26;20236;-73
2024/04/22 03:51:59;;;;;;;4.78;3.65;;;5.40;80.80;;;;;;5421993;26;20575;-75
2024/04/22 03:54:28;;;;;;;4.03;2.85;;;5.40;80.40;;;;;;5419252;26;20229;-75
2024/04/22 03:56:59;;;;;;;4.25;3.80;;;5.30;80.50;;;;;;5418871;26;20694;-74
2024/04/22 03:59:28;;;;;;;4.65;3.13;;;5.40;81.20;;;;;;5419636;26;20243;-75
2024/04/22 04:01:56;;;;;;;4.25;3.10;;;5.40;81.20;;;;;;5419058;26;20217;-75
2024/04/22 04:04:22;;;;;;;3.83;3.13;;;5.30;80.50;;;;;;5418455;26;20255;-75
2024/04/22 04:06:51;;;;;;;3.83;2.75;;;5.40;80.30;;;;;;5418197;26;20537;-73
2024/04/22 04:09:23;;;;;;;3.35;2.42;;;5.30;80.60;;;;;;5419106;26;20255;-74
2024/04/22 04:11:51;;;;;;;4.47;3.15;;;5.40;81.00;;;;;;5419163;26;20213;-75
2024/04/22 04:14:20;;;;;;;4.22;3.28;;;5.30;80.80;;;;;;5419070;26;20251;-75
2024/04/22 04:16:49;;;;;;;3.80;2.78;;;5.40;80.60;;;;;;5418811;26;20320;-75
2024/04/22 04:19:15;;;;;;;3.42;2.35;;;5.30;80.30;;;;;;5418510;26;20266;-75
2024/04/22 04:21:44;;;;;;;3.07;2.30;;;5.30;80.70;;;;;;5418908;26;20216;-75
2024/04/22 04:24:10;;;;;;;4.05;2.72;;;5.30;81.20;;;;;;5418973;26;20895;-76
2024/04/22 04:26:39;;;;;;;3.13;2.35;;;5.30;81.30;;;;;;5418900;26;20216;-76
2024/04/22 04:29:05;;;;;;;4.07;2.88;;;5.30;82.10;;;;;;5416087;26;20233;-75
2024/04/22 04:31:36;;;;;;;4.32;2.97;;;5.30;82.50;;;;;;5418016;26;20232;-75
2024/04/22 04:34:02;;;;;;;3.67;2.80;;;5.30;82.60;;;;;;5418304;26;20531;-74
2024/04/22 04:36:31;;;;;;;4.10;3.00;;;5.30;82.60;;;;;;5418321;26;20292;-75
2024/04/22 04:38:57;;;;;;;4.03;2.78;;;5.40;82.60;;;;;;5415998;26;20518;-74
2024/04/22 04:41:25;;;;;;;5.60;3.50;;;5.40;83.00;;;;;;5418219;26;20583;-75
2024/04/22 04:43:51;;;;;;;4.95;3.58;;;5.40;83.00;;;;;;5417835;26;20502;-75
2024/04/22 04:46:20;;;;;;;4.18;2.90;;;5.30;83.20;;;;;;5416489;26;20279;-75
2024/04/22 04:48:49;;;;;;;5.28;3.30;;;5.40;83.20;;;;;;5414379;26;20270;-75
2024/04/22 04:51:17;;;;;;;4.65;3.28;;;5.40;83.20;;;;;;5411941;26;20566;-77
2024/04/22 04:53:43;;;;;;;4.60;2.90;;;5.40;83.50;;;;;;5414504;26;20233;-75
2024/04/22 04:56:12;;;;;;;3.95;2.92;;;5.40;84.10;;;;;;5415728;26;20275;-77
2024/04/22 04:58:38;;;;;;;5.07;4.28;;;5.50;83.90;;;;;;5416273;26;20286;-78
2024/04/22 05:01:07;;;;;;;4.97;3.97;;;5.50;83.60;;;;;;5415523;26;20717;-77
2024/04/22 05:03:33;;;;;;;6.40;4.22;;;5.50;83.60;;;;;;5417233;26;20228;-75
2024/04/22 05:06:04;;;;;;;4.97;4.10;;;5.50;83.70;;;;;;5418255;26;20236;-75
2024/04/22 05:08:30;;;;;;;5.15;4.65;;;5.60;84.00;;;;;;5417525;26;20220;-75
2024/04/22 05:11:04;;;;;;;5.87;4.60;;;5.60;83.70;;;;;;5417501;26;20271;-75
2024/04/22 05:13:30;;;;;;;5.05;4.00;;;5.60;83.30;;;;;;5417740;26;20458;-76
2024/04/22 05:15:59;;;;;;;5.10;3.30;;;5.60;83.90;;;;;;5417566;26;20714;-75
2024/04/22 05:18:25;;;;;;;4.93;4.10;;;5.70;83.90;;;;;;5417226;26;20255;-75
2024/04/22 05:20:54;;;;;;;5.82;3.88;;;5.70;83.50;;;;;;5416311;26;20526;-77
2024/04/22 05:23:24;;;;;;;5.63;4.60;;;5.70;83.30;;;;;;5407615;26;20272;-77
2024/04/22 05:25:53;;;;;;;5.00;3.80;;;5.70;83.30;;;;;;5411813;26;20221;-77
2024/04/22 05:28:22;;;;;;;5.35;3.50;;;5.70;82.60;;;;;;5409179;26;20270;-76
2024/04/22 05:30:51;;;;;;;6.15;3.88;;;5.70;82.80;;;;;;5407305;26;20329;-77
2024/04/22 05:36:14;;;;;;;5.68;4.43;;;5.60;83.10;;;;;;5417208;26;20341;-75
2024/04/22 05:38:50;;;;;;;7.22;4.80;;;5.70;83.60;;;;;;5416384;26;20572;-74
2024/04/22 05:41:19;;;;;;;6.78;4.60;;;5.60;83.00;;;;;;5415949;26;20232;-75
2024/04/22 05:43:48;;;;;;;6.70;5.18;;;5.70;83.10;;;;;;5414317;26;20232;-76
2024/04/22 05:46:16;;;;;;;5.93;5.00;;;5.70;82.70;;;;;;5417029;26;20247;-76
2024/04/22 05:48:45;;;;;;;6.78;5.18;;;5.70;82.20;;;;;;5407824;26;20236;-76
2024/04/22 05:51:14;;;;;;;7.00;5.53;;;5.70;82.40;;;;;;5416665;26;20228;-75
2024/04/22 05:53:40;;;;;;;7.38;5.30;;;5.70;82.00;;;;;;5416120;26;20228;-75
2024/04/22 05:56:11;;;;;;;6.87;5.67;;;5.70;82.00;;;;;;5417007;26;20282;-75
2024/04/22 05:58:37;;;;;;;11.80;5.97;;;5.70;82.30;;;;;;5417505;26;20458;-76
2024/04/22 06:01:06;;;;;;;8.17;5.80;;;5.80;82.10;;;;;;5417228;26;20309;-74
2024/04/22 06:03:33;;;;;;;8.40;7.10;;;5.80;82.20;;;;;;5417632;26;20453;-74
2024/04/22 06:06:02;;;;;;;8.38;6.32;;;5.80;82.20;;;;;;5417398;26;20228;-75
2024/04/22 06:08:28;;;;;;;10.13;7.60;;;5.80;82.00;;;;;;5417122;26;20251;-77
2024/04/22 06:10:57;;;;;;;10.00;7.50;;;5.80;81.90;;;;;;5417255;26;20220;-75
2024/04/22 06:13:25;;;;;;;11.48;8.45;;;5.80;82.20;;;;;;5417199;26;20640;-75
2024/04/22 06:15:54;;;;;;;10.48;7.90;;;5.80;82.40;;;;;;5417943;26;20220;-75
2024/04/22 06:18:23;;;;;;;8.98;6.93;;;5.80;82.40;;;;;;5417357;26;20255;-74
2024/04/22 06:20:49;;;;;;;10.50;8.02;;;5.80;81.80;;;;;;5417312;26;20239;-75
2024/04/22 06:23:17;;;;;;;10.67;9.30;;;5.80;82.30;;;;;;5417198;26;20264;-75
2024/04/22 06:25:43;;;;;;;13.85;10.93;;;5.80;82.20;;;;;;5417192;26;20450;-74
2024/04/22 06:28:12;;;;;;;12.15;8.50;;;5.80;82.50;;;;;;5413292;26;20278;-76
2024/04/22 06:30:40;;;;;;;10.20;9.05;;;5.80;82.40;;;;;;5416884;26;20259;-75
2024/04/22 06:33:09;;;;;;;12.80;9.77;;;5.80;82.60;;;;;;5416794;26;20232;-75
2024/04/22 06:35:35;;;;;;;10.30;9.15;;;5.90;82.20;;;;;;5417188;26;20216;-76
2024/04/22 06:38:04;;;;;;;12.70;9.13;;;5.90;82.40;;;;;;5416798;26;20250;-75
2024/04/22 06:40:30;;;;;;;14.45;10.57;;;5.90;82.30;;;;;;5417576;26;20453;-77
2024/04/22 06:42:58;;;;;;;14.20;10.07;;;5.90;82.20;;;;;;5416889;26;20217;-75
2024/04/22 06:45:24;;;;;;;14.68;10.43;;;5.90;82.00;;;;;;5416833;26;20778;-76
2024/04/22 06:47:55;;;;;;;17.48;12.45;;;5.90;81.30;;;;;;5416676;26;20221;-75
2024/04/22 06:50:21;;;;;;;14.32;10.68;;;5.90;80.80;;;;;;5416556;26;20217;-75
2024/04/22 06:52:50;;;;;;;15.30;10.73;;;5.90;80.10;;;;;;5416675;26;20250;-75
2024/04/22 06:55:16;;;;;;;13.93;10.55;;;5.90;79.80;;;;;;5416911;26;20506;-75
2024/04/22 06:57:45;;;;;;;11.93;9.65;;;5.90;80.10;;;;;;5415376;26;20236;-75
2024/04/22 07:00:12;;;;;;;11.35;9.93;;;5.90;79.30;;;;;;5416068;26;20232;-75
2024/04/22 07:02:46;;;;;;;12.15;10.02;;;5.90;79.40;;;;;;5416691;26;20312;-76
2024/04/22 07:05:16;;;;;;;11.63;9.25;;;5.80;78.70;;;;;;5416324;26;20700;-76
2024/04/22 07:07:44;;;;;;;12.20;9.90;;;5.80;79.20;;;;;;5413527;26;20649;-76
2024/04/22 07:10:11;;;;;;;12.68;9.68;;;5.80;78.80;;;;;;5415462;26;20268;-74
2024/04/22 07:12:40;;;;;;;13.85;10.45;;;5.70;78.10;;;;;;5414928;26;20232;-77
2024/04/22 07:15:07;;;;;;;11.10;9.63;;;5.70;78.50;;;;;;5414878;26;20718;-76
2024/04/22 07:17:36;;;;;;;10.77;9.02;;;5.70;79.20;;;;;;5415277;26;20232;-75
2024/04/22 07:20:04;;;;;;;12.98;9.40;;;5.70;79.40;;;;;;5414387;26;20228;-76
2024/04/22 07:22:37;;;;;;;12.93;9.07;;;5.80;79.60;;;;;;5415764;26;20694;-78
2024/04/22 07:25:04;;;;;;;11.90;9.18;;;5.80;78.40;;;;;;5416346;26;20224;-75
2024/04/22 07:27:33;;;;;;;15.55;8.70;;;5.90;77.30;;;;;;5414803;26;20228;-75
2024/04/22 07:30:00;;;;;;;13.80;8.52;;;5.90;77.00;;;;;;5415632;26;20236;-75
2024/04/22 07:32:30;;;;;;;13.40;7.90;;;5.80;78.40;;;;;;5416192;26;20216;-77
2024/04/22 07:34:57;;;;;;;15.43;9.55;;;5.90;79.00;;;;;;5416803;26;20220;-76
2024/04/22 07:37:32;;;;;;;11.32;9.60;;;5.90;79.20;;;;;;5416076;26;20220;-75
2024/04/22 07:40:12;;;;;;;14.13;8.48;;;6.00;80.20;;;;;;5416031;26;20503;-75
2024/04/22 07:42:41;;;;;;;12.85;7.82;;;6.10;77.50;;;;;;5416056;26;20255;-74
2024/04/22 07:45:07;;;;;;;11.40;7.00;;;6.10;75.70;;;;;;5416183;26;20220;-75
2024/04/22 07:47:36;;;;;;;12.25;8.27;;;6.10;75.50;;;;;;5415962;26;20216;-75
2024/04/22 07:50:02;;;;;;;8.45;7.55;;;6.10;76.70;;;;;;5416261;26;20212;-75
2024/04/22 07:52:33;;;;;;;9.68;7.90;;;6.20;78.30;;;;;;5415839;26;20265;-74
2024/04/22 07:55:04;;;;;;;10.02;7.22;;;6.20;76.20;;;;;;5415761;26;20216;-75
2024/04/22 07:57:33;;;;;;;8.40;6.75;;;6.20;76.60;;;;;;5415513;26;20232;-76
2024/04/22 08:00:01;;;;;;;9.23;6.72;;;6.20;76.00;;;;;;5415625;26;20690;-75
2024/04/22 08:02:30;;;;;;;8.48;5.85;;;6.20;75.20;;;;;;5417339;26;20216;-75
2024/04/22 08:04:57;;;;;;;11.68;7.13;;;6.20;74.90;;;;;;5419477;26;20258;-75
2024/04/22 08:07:25;;;;;;;10.05;6.53;;;6.20;72.60;;;;;;5419353;26;20232;-79
2024/04/22 08:09:52;;;;;;;6.97;5.35;;;6.20;72.60;;;;;;5419127;26;20651;-75
2024/04/22 08:12:23;;;;;;;7.80;6.38;;;6.20;74.20;;;;;;5419404;26;20749;-74
2024/04/22 08:14:49;;;;;;;8.88;6.90;;;6.20;73.40;;;;;;5419625;26;20536;-75
2024/04/22 08:17:18;;;;;;;7.82;6.40;;;6.30;73.60;;;;;;5419219;26;20220;-76
2024/04/22 08:19:44;;;;;;;8.63;6.53;;;6.40;74.20;;;;;;5418949;26;20532;-74
2024/04/22 08:22:12;;;;;;;8.10;5.97;;;6.40;71.30;;;;;;5418911;26;20285;-75
2024/04/22 08:24:38;;;;;;;7.32;5.95;;;6.40;71.20;;;;;;5418784;26;20975;-74
2024/04/22 08:27:07;;;;;;;8.90;6.20;;;6.40;72.50;;;;;;5418693;26;20236;-75
2024/04/22 08:29:37;;;;;;;9.93;6.07;;;6.50;71.20;;;;;;5418649;26;20271;-76
2024/04/22 08:32:06;;;;;;;7.35;6.07;;;6.60;71.90;;;;;;5418723;26;20217;-75
2024/04/22 08:34:32;;;;;;;9.32;5.85;;;6.70;72.70;;;;;;5419270;26;20669;-75
2024/04/22 08:37:06;;;;;;;11.70;6.80;;;6.70;72.20;;;;;;5418692;26;20258;-75
2024/04/22 08:39:32;;;;;;;5.68;5.10;;;6.80;71.60;;;;;;5418765;26;20804;-75
2024/04/22 08:42:00;;;;;;;7.10;5.55;;;6.90;71.30;;;;;;5418868;26;20693;-75
2024/04/22 08:44:27;;;;;;;7.40;6.13;;;7.10;70.80;;;;;;5418530;26;20228;-76
2024/04/22 08:46:58;;;;;;;6.30;5.25;;;7.30;70.90;;;;;;5418677;26;20228;-75
2024/04/22 08:49:24;;;;;;;6.70;4.80;;;7.40;69.30;;;;;;5418588;26;20221;-79
2024/04/22 08:51:57;;;;;;;6.30;5.68;;;7.60;70.50;;;;;;5418652;26;20220;-76
2024/04/22 08:54:24;;;;;;;7.57;5.47;;;7.80;68.60;;;;;;5418500;26;20217;-75
2024/04/22 08:56:54;;;;;;;7.03;4.80;;;8.00;66.00;;;;;;5418503;26;20314;-75
2024/04/22 08:59:21;;;;;;;5.40;4.25;;;8.10;66.20;;;;;;5418520;26;20216;-76
2024/04/22 09:02:04;;;;;;;7.10;5.65;;;8.20;62.90;;;;;;5418490;26;20266;-77
2024/04/22 09:04:30;;;;;;;7.03;4.70;;;8.20;61.70;;;;;;5418358;26;20216;-76
2024/04/22 09:06:59;;;;;;;6.05;4.63;;;8.20;63.40;;;;;;5419102;26;20220;-76
2024/04/22 09:09:25;;;;;;;9.13;5.18;;;8.10;60.90;;;;;;5418127;26;20741;-76
2024/04/22 09:11:54;;;;;;;6.65;5.35;;;8.10;61.60;;;;;;5418204;26;20322;-76
2024/04/22 09:14:20;;;;;;;7.95;5.10;;;8.10;60.90;;;;;;5417588;26;20221;-75
2024/04/22 09:16:49;;;;;;;5.70;4.20;;;8.10;59.20;;;;;;5418701;26;20254;-76
2024/04/22 09:19:22;;;;;;;7.25;4.72;;;8.00;58.80;;;;;;5418312;26;20450;-76
2024/04/22 09:21:52;;;;;;;6.15;4.80;;;8.00;60.30;;;;;;5418130;26;20551;-76
2024/04/22 09:24:18;;;;;;;5.80;4.63;;;8.00;61.90;;;;;;5417942;26;20247;-75
2024/04/22 09:26:48;;;;;;;5.80;4.35;;;8.00;59.10;;;;;;5417890;26;20216;-76
2024/04/22 09:29:18;;;;;;;7.28;4.55;;;8.00;58.30;;;;;;5417887;26;20379;-75
2024/04/22 09:31:49;;;;;;;5.07;4.30;;;8.00;60.20;;;;;;5418312;26;20538;-75
2024/04/22 09:34:17;;;;;;;5.32;4.53;;;8.00;60.50;;;;;;5418105;26;20259;-75
2024/04/22 09:36:50;;;;;;;11.48;5.07;;;8.00;61.20;;;;;;5417825;26;20251;-76
2024/04/22 09:39:17;;;;;;;6.40;4.43;;;8.10;61.70;;;;;;5418456;26;20259;-75
2024/04/22 09:41:47;;;;;;;7.63;4.18;;;8.10;59.30;;;;;;5417824;26;20254;-74
2024/04/22 09:44:16;;;;;;;6.53;4.78;;;8.10;59.30;;;;;;5418162;26;20575;-75
2024/04/22 09:46:50;;;;;;;6.30;4.57;;;8.00;60.10;;;;;;5417774;26;20758;-76
2024/04/22 09:49:18;;;;;;;6.25;4.70;;;8.00;60.00;;;;;;5417685;26;20254;-76
2024/04/22 09:51:51;;;;;;;4.93;4.10;;;8.10;61.40;;;;;;5417641;26;20615;-76
2024/04/22 09:54:18;;;;;;;6.00;4.13;;;8.10;60.40;;;;;;5417277;26;20720;-75
2024/04/22 09:56:49;;;;;;;6.07;4.75;;;8.20;62.20;;;;;;5417290;26;20301;-76
2024/04/22 09:59:17;;;;;;;5.35;3.25;;;8.30;60.30;;;;;;5417741;26;20535;-76
2024/04/22 10:01:46;;;;;;;5.10;3.85;;;8.30;59.20;;;;;;5417765;26;20546;-76
2024/04/22 10:04:13;;;;;;;5.05;3.92;;;8.30;59.60;;;;;;5417488;26;20212;-76
2024/04/22 10:06:43;;;;;;;6.32;4.20;;;8.40;59.90;;;;;;5417406;26;20246;-77
2024/04/22 10:09:20;;;;;;;5.15;3.97;;;8.50;60.90;;;;;;5417932;26;20212;-76
2024/04/22 10:11:49;;;;;;;8.68;5.32;;;8.70;63.20;;;;;;5418117;26;20259;-76
2024/04/22 10:14:16;;;;;;;6.13;4.47;;;8.90;61.40;;;;;;5417420;26;20224;-75
2024/04/22 10:16:55;;;;;;;5.18;4.05;;;9.10;59.70;;;;;;5417599;26;20216;-76
2024/04/22 10:19:21;;;;;;;4.55;3.60;;;9.10;59.00;;;;;;5417463;26;20228;-76
2024/04/22 10:21:51;;;;;;;5.28;4.20;;;9.10;56.70;;;;;;5417047;26;20250;-75
2024/04/22 10:24:29;;;;;;;5.22;4.38;;;9.10;56.80;;;;;;5417049;26;20250;-76
2024/04/22 10:26:58;;;;;;;5.05;4.00;;;9.10;57.80;;;;;;5416122;26;20220;-76
2024/04/22 10:29:24;;;;;;;5.10;3.97;;;9.00;56.90;;;;;;5417004;26;20217;-76
2024/04/22 10:31:53;;;;;;;4.38;3.70;;;9.00;55.70;;;;;;5416958;26;20254;-76
2024/04/22 10:34:19;;;;;;;5.95;4.25;;;8.90;56.40;;;;;;5417062;26;20212;-76
2024/04/22 10:36:48;;;;;;;7.38;4.30;;;8.90;56.10;;;;;;5417022;26;20262;-75
2024/04/22 10:39:16;;;;;;;5.93;4.10;;;8.90;56.00;;;;;;5417173;26;20217;-76
2024/04/22 10:41:45;;;;;;;6.32;4.40;;;9.00;55.60;;;;;;5416876;26;20754;-75
2024/04/22 10:44:14;;;;;;;4.40;3.40;;;9.00;56.20;;;;;;5417193;26;20247;-75
2024/04/22 10:46:40;;;;;;;5.82;3.78;;;9.00;55.70;;;;;;5417067;26;20216;-76
2024/04/22 10:49:09;;;;;;;6.65;4.25;;;9.10;57.40;;;;;;5417295;26;20281;-76
2024/04/22 10:51:35;;;;;;;4.72;3.50;;;9.20;56.90;;;;;;5416657;26;20728;-76
2024/04/22 10:54:04;;;;;;;4.55;3.70;;;9.30;57.50;;;;;;5416494;26;20596;-75
2024/04/22 10:56:30;;;;;;;6.72;3.80;;;9.40;55.90;;;;;;5416840;26;20224;-76
2024/04/22 10:59:03;;;;;;;10.00;4.00;;;9.40;55.40;;;;;;5417403;26;20248;-75
2024/04/22 11:01:29;;;;;;;4.97;4.47;;;9.40;56.40;;;;;;5417197;26;20251;-75
2024/04/22 11:04:01;;;;;;;5.90;4.32;;;9.40;54.70;;;;;;5417043;26;20220;-73
2024/04/22 11:06:28;;;;;;;7.72;5.43;;;9.40;55.30;;;;;;5418025;26;20208;-75
2024/04/22 11:08:57;;;;;;;6.28;4.97;;;9.40;55.20;;;;;;5416624;26;20254;-75
2024/04/22 11:11:23;;;;;;;6.72;5.10;;;9.40;55.60;;;;;;5417044;26;20732;-76
2024/04/22 11:13:52;;;;;;;6.38;4.78;;;9.40;54.40;;;;;;5416432;26;20216;-77
2024/04/22 11:16:21;;;;;;;6.75;5.25;;;9.40;55.10;;;;;;5416306;26;20318;-75
2024/04/22 11:18:50;;;;;;;9.15;5.63;;;9.40;55.10;;;;;;5416245;26;20836;-76
2024/04/22 11:21:16;;;;;;;6.90;5.55;;;9.50;55.30;;;;;;5416575;26;20220;-76
2024/04/22 11:23:45;;;;;;;6.63;4.73;;;9.50;55.00;;;;;;5416037;26;20216;-76
2024/04/22 11:26:11;;;;;;;6.30;3.83;;;9.50;54.70;;;;;;5415197;26;20600;-75
2024/04/22 11:28:39;;;;;;;6.50;5.05;;;9.60;54.90;;;;;;5415177;26;20345;-75
2024/04/22 11:31:07;;;;;;;5.90;4.90;;;9.60;54.60;;;;;;5416570;26;20216;-76
2024/04/22 11:33:38;;;;;;;8.85;5.60;;;9.60;55.50;;;;;;5415303;26;20236;-77
2024/04/22 11:36:08;;;;;;;6.10;4.75;;;9.60;53.90;;;;;;5416361;26;20350;-77
2024/04/22 11:38:37;;;;;;;7.55;5.28;;;9.50;54.70;;;;;;5419109;26;20739;-75
2024/04/22 11:41:03;;;;;;;10.20;6.05;;;9.50;55.20;;;;;;5419587;26;20581;-76
2024/04/22 11:43:32;;;;;;;8.00;5.40;;;9.40;55.50;;;;;;5419046;26;20232;-76
2024/04/22 11:45:58;;;;;;;6.13;4.93;;;9.40;55.70;;;;;;5419571;26;20216;-76
2024/04/22 11:48:27;;;;;;;7.00;5.35;;;9.40;55.80;;;;;;5419327;26;20717;-77
2024/04/22 11:50:55;;;;;;;5.57;4.40;;;9.50;55.50;;;;;;5419832;26;20220;-77
2024/04/22 11:53:24;;;;;;;9.05;5.03;;;9.50;55.40;;;;;;5418177;26;20274;-76
2024/04/22 11:55:50;;;;;;;8.68;5.53;;;9.60;55.20;;;;;;5413576;26;20221;-75
2024/04/22 11:58:19;;;;;;;7.50;5.87;;;9.60;54.80;;;;;;5418331;26;20714;-75
2024/04/22 12:00:48;;;;;;;8.98;5.88;;;9.80;54.90;;;;;;5418203;26;20854;-76
2024/04/22 12:03:14;;;;;;;7.63;5.72;;;9.80;55.10;;;;;;5418394;26;20228;-75
2024/04/22 12:05:43;;;;;;;12.55;5.82;;;9.90;54.40;;;;;;5417884;26;20652;-75
2024/04/22 12:08:12;;;;;;;13.95;7.68;;;9.90;54.20;;;;;;5417071;26;20228;-78
2024/04/22 12:10:41;;;;;;;7.75;5.25;;;10.00;53.50;;;;;;5418940;26;20249;-76
2024/04/22 12:13:07;;;;;;;8.32;5.55;;;10.00;52.70;;;;;;5418916;26;20256;-76
2024/04/22 12:15:36;;;;;;;7.30;6.25;;;9.90;53.00;;;;;;5419020;26;20328;-76
2024/04/22 12:18:02;;;;;;;6.47;5.60;;;9.80;52.60;;;;;;5420131;26;20216;-75
2024/04/22 12:20:30;;;;;;;5.13;4.03;;;9.70;53.30;;;;;;5419168;26;20216;-76
2024/04/22 12:22:56;;;;;;;6.60;4.38;;;9.70;54.30;;;;;;5419298;26;20247;-76
2024/04/22 12:25:28;;;;;;;6.83;5.13;;;9.70;55.70;;;;;;5419086;26;20221;-77
2024/04/22 12:27:53;;;;;;;6.03;4.75;;;9.80;54.80;;;;;;5418461;26;20462;-76
2024/04/22 12:30:22;;;;;;;7.70;4.77;;;9.90;55.00;;;;;;5418776;26;20255;-77
2024/04/22 12:32:48;;;;;;;7.07;5.53;;;9.90;54.30;;;;;;5418392;26;20458;-76
2024/04/22 12:35:17;;;;;;;6.13;4.70;;;10.00;53.40;;;;;;5418374;26;20329;-75
2024/04/22 12:37:44;;;;;;;6.55;5.60;;;10.10;53.40;;;;;;5418661;26;20220;-76
2024/04/22 12:40:13;;;;;;;8.30;5.30;;;10.00;52.40;;;;;;5418353;26;20224;-76
2024/04/22 12:42:41;;;;;;;9.32;7.07;;;10.00;53.40;;;;;;5418456;26;20212;-76
2024/04/22 12:45:12;;;;;;;10.07;6.00;;;10.00;54.00;;;;;;5418638;26;20232;-75
2024/04/22 12:53:10;;;;;;;7.25;6.00;;;9.80;54.50;;;;;;5421425;26;20234;-76
2024/04/22 12:55:38;;;;;;;7.00;5.28;;;9.70;55.30;;;;;;5418270;26;20534;-76
2024/04/22 12:58:10;;;;;;;6.18;5.53;;;9.60;55.10;;;;;;5418159;26;20570;-75
2024/04/22 13:00:38;;;;;;;7.32;5.70;;;9.50;55.40;;;;;;5418507;26;20879;-76
2024/04/22 13:03:07;;;;;;;7.57;6.45;;;9.50;56.30;;;;;;5418130;26;20267;-77
2024/04/22 13:05:37;;;;;;;8.88;6.70;;;9.50;57.20;;;;;;5418764;26;20254;-76
2024/04/22 13:08:06;;;;;;;7.45;5.65;;;9.50;57.30;;;;;;5418263;26;20333;-75
2024/04/22 13:10:34;;;;;;;8.63;5.78;;;9.40;56.70;;;;;;5418588;26;20563;-76
2024/04/22 13:13:03;;;;;;;5.22;4.72;;;9.40;56.50;;;;;;5418136;26;20263;-76
2024/04/22 13:15:32;;;;;;;7.07;5.93;;;9.40;55.70;;;;;;5418140;26;20243;-76